Time,TemperatureF,DewpointF,PressureIn,WindDirection,WindDirectionDegrees,WindSpeedMPH,WindSpeedGustMPH,Humidity,HourlyPrecipIn,Conditions,Clouds,dailyrainin,SoftwareType,DateUTC
2013-02-17 01:53:00,37.2,7.1,29.98,WSW,247,1.7,-999.0,28,-99.99,,,0.00,Acu-Link.com,2013-02-17 08:53:00,
2013-02-17 02:19:00,38.5,7.5,29.97,WSW,247,2.2,-999.0,27,-99.99,,,0.00,Acu-Link.com,2013-02-17 09:19:00,
2013-02-17 02:35:00,37.4,7.3,29.97,WSW,247,0.0,-999.0,28,-99.99,,,0.00,Acu-Link.com,2013-02-17 09:35:00,
2013-02-17 02:51:00,36.3,7.9,29.96,WSW,247,0.0,-999.0,30,-99.99,,,0.00,Acu-Link.com,2013-02-17 09:51:00,
2013-02-17 03:07:00,35.4,8.5,29.96,WSW,247,0.0,-999.0,32,-99.99,,,0.00,Acu-Link.com,2013-02-17 10:07:00,
2013-02-17 03:22:00,36.0,9.7,29.95,WSW,247,0.0,-999.0,33,-99.99,,,0.00,Acu-Link.com,2013-02-17 10:22:00,
2013-02-17 04:45:00,35.1,10.2,29.92,NNW,337,0.0,-999.0,35,-99.99,,,0.00,Acu-Link.com,2013-02-17 11:45:00,
2013-02-17 05:00:00,35.1,9.6,29.92,NNW,337,1.1,-999.0,34,-99.99,,,0.00,Acu-Link.com,2013-02-17 12:00:00,
2013-02-17 05:16:00,35.6,10.0,29.92,NNW,337,2.2,-999.0,34,-99.99,,,0.00,Acu-Link.com,2013-02-17 12:16:00,
2013-02-17 05:31:00,35.8,9.5,29.92,NNW,337,0.0,-999.0,33,-99.99,,,0.00,Acu-Link.com,2013-02-17 12:31:00,
2013-02-17 05:46:00,35.4,9.2,29.92,NNW,337,0.0,-999.0,33,-99.99,,,0.00,Acu-Link.com,2013-02-17 12:46:00,
2013-02-17 06:02:00,34.7,9.2,29.92,NNW,337,0.0,-999.0,34,-99.99,,,0.00,Acu-Link.com,2013-02-17 13:02:00,
2013-02-17 06:17:00,34.9,9.4,29.91,NNW,337,2.2,-999.0,34,-99.99,,,0.00,Acu-Link.com,2013-02-17 13:17:00,
2013-02-17 06:35:00,34.5,9.1,29.92,NNW,337,3.2,-999.0,34,-99.99,,,0.00,Acu-Link.com,2013-02-17 13:35:00,
2013-02-17 06:54:00,33.8,9.1,29.92,NNW,337,0.0,-999.0,35,-99.99,,,0.00,Acu-Link.com,2013-02-17 13:54:00,
2013-02-17 07:09:00,37.0,11.3,29.92,NNW,337,0.0,-999.0,34,-99.99,,,0.00,Acu-Link.com,2013-02-17 14:09:00,
2013-02-17 07:24:00,37.4,11.6,29.93,NNW,337,2.7,-999.0,34,-99.99,,,0.00,Acu-Link.com,2013-02-17 14:24:00,
2013-02-17 07:41:00,39.9,11.7,29.92,NNW,337,3.2,-999.0,31,-99.99,,,0.00,Acu-Link.com,2013-02-17 14:41:00,
2013-02-17 07:58:00,42.1,10.6,29.91,NNE,22,1.7,-999.0,27,-99.99,,,0.00,Acu-Link.com,2013-02-17 14:58:00,
2013-02-17 08:19:00,50.2,12.8,29.92,NNE,22,0.0,-999.0,22,-99.99,,,0.00,Acu-Link.com,2013-02-17 15:19:00,
2013-02-17 08:36:00,50.2,10.7,29.92,NNE,22,4.2,-999.0,20,-99.99,,,0.00,Acu-Link.com,2013-02-17 15:36:00,
2013-02-17 08:51:00,50.0,10.5,29.92,ESE,112,2.7,-999.0,20,-99.99,,,0.00,Acu-Link.com,2013-02-17 15:51:00,
2013-02-17 09:07:00,51.6,10.7,29.92,SSE,157,0.0,-999.0,19,-99.99,,,0.00,Acu-Link.com,2013-02-17 16:07:00,
2013-02-17 09:22:00,50.9,8.9,29.92,SSE,157,5.3,-999.0,18,-99.99,,,0.00,Acu-Link.com,2013-02-17 16:22:00,
2013-02-17 09:47:00,51.1,10.3,29.91,SSE,157,2.2,-999.0,19,-99.99,,,0.00,Acu-Link.com,2013-02-17 16:47:00,
2013-02-17 10:02:00,53.2,9.5,29.90,SSE,157,4.2,-999.0,17,-99.99,,,0.00,Acu-Link.com,2013-02-17 17:02:00,
2013-02-17 10:18:00,55.6,10.1,29.89,SSE,157,4.2,-999.0,16,-99.99,,,0.00,Acu-Link.com,2013-02-17 17:18:00,
2013-02-17 10:34:00,54.5,7.8,29.89,South,180,5.8,-999.0,15,-99.99,,,0.00,Acu-Link.com,2013-02-17 17:34:00,
2013-02-17 10:49:00,55.8,8.9,29.88,South,180,3.2,-999.0,15,-99.99,,,0.00,Acu-Link.com,2013-02-17 17:49:00,
2013-02-17 11:07:00,57.4,7.0,29.87,South,180,3.7,-999.0,13,-99.99,,,0.00,Acu-Link.com,2013-02-17 18:07:00,
2013-02-17 11:23:00,60.6,7.7,29.86,South,180,6.8,-999.0,12,-99.99,,,0.00,Acu-Link.com,2013-02-17 18:23:00,
2013-02-17 11:38:00,62.8,5.4,29.85,SSE,157,8.3,-999.0,10,-99.99,,,0.00,Acu-Link.com,2013-02-17 18:38:00,
2013-02-17 11:53:00,59.9,3.2,29.83,South,180,8.9,-999.0,10,-99.99,,,0.00,Acu-Link.com,2013-02-17 18:53:00,
2013-02-17 12:08:00,61.7,2.3,29.83,SW,225,5.3,-999.0,9,-99.99,,,0.00,Acu-Link.com,2013-02-17 19:08:00,
2013-02-17 12:24:00,65.8,2.9,29.81,WSW,247,4.2,-999.0,8,-99.99,,,0.00,Acu-Link.com,2013-02-17 19:24:00,
2013-02-17 12:39:00,67.1,1.0,29.80,WSW,247,3.2,-999.0,7,-99.99,,,0.00,Acu-Link.com,2013-02-17 19:39:00,
2013-02-17 12:54:00,69.6,-0.5,29.78,South,180,9.9,-999.0,6,-99.99,,,0.00,Acu-Link.com,2013-02-17 19:54:00,
2013-02-17 13:09:00,68.4,-5.1,29.78,SSW,202,10.9,-999.0,5,-99.99,,,0.00,Acu-Link.com,2013-02-17 20:09:00,
2013-02-17 13:25:00,69.3,-4.5,29.76,SW,225,7.8,-999.0,5,-99.99,,,0.00,Acu-Link.com,2013-02-17 20:25:00,
2013-02-17 13:40:00,69.6,-4.3,29.75,SW,225,4.7,-999.0,5,-99.99,,,0.00,Acu-Link.com,2013-02-17 20:40:00,
2013-02-17 13:55:00,70.2,-34.7,29.74,SW,225,5.3,-999.0,1,-99.99,,,0.00,Acu-Link.com,2013-02-17 20:55:00,
2013-02-17 14:11:00,71.2,-34.1,29.73,SSE,157,4.2,-999.0,1,-99.99,,,0.00,Acu-Link.com,2013-02-17 21:11:00,
2013-02-17 14:26:00,72.9,-33.1,29.72,West,270,5.8,-999.0,1,-99.99,,,0.00,Acu-Link.com,2013-02-17 21:26:00,
2013-02-17 14:41:00,72.5,-33.3,29.71,West,270,7.8,-999.0,1,-99.99,,,0.00,Acu-Link.com,2013-02-17 21:41:00,
2013-02-17 14:56:00,73.4,-32.8,29.70,SW,225,6.3,-999.0,1,-99.99,,,0.00,Acu-Link.com,2013-02-17 21:56:00,
2013-02-17 15:11:00,72.9,-33.1,29.69,West,270,2.2,-999.0,1,-99.99,,,0.00,Acu-Link.com,2013-02-17 22:11:00,
2013-02-17 15:26:00,71.2,-34.1,29.69,WSW,247,11.9,-999.0,1,-99.99,,,0.00,Acu-Link.com,2013-02-17 22:26:00,
2013-02-17 15:41:00,70.2,-34.7,29.69,WSW,247,8.3,-999.0,1,-99.99,,,0.00,Acu-Link.com,2013-02-17 22:41:00,
2013-02-17 15:57:00,69.4,-35.2,29.69,SW,225,8.3,-999.0,1,-99.99,,,0.00,Acu-Link.com,2013-02-17 22:57:00,
2013-02-17 16:12:00,70.5,-34.5,29.68,SW,225,6.8,-999.0,1,-99.99,,,0.00,Acu-Link.com,2013-02-17 23:12:00,
2013-02-17 16:27:00,68.2,-9.8,29.67,SW,225,7.3,-999.0,4,-99.99,,,0.00,Acu-Link.com,2013-02-17 23:27:00,
2013-02-17 16:45:00,67.1,-6.1,29.66,WSW,247,9.4,-999.0,5,-99.99,,,0.00,Acu-Link.com,2013-02-17 23:45:00,
2013-02-17 17:03:00,66.9,-6.2,29.66,WSW,247,6.3,-999.0,5,-99.99,,,0.00,Acu-Link.com,2013-02-18 00:03:00,
2013-02-17 17:18:00,67.3,-2.1,29.66,SW,225,3.2,-999.0,6,-99.99,,,0.00,Acu-Link.com,2013-02-18 00:18:00,
2013-02-17 17:34:00,66.0,-3.1,29.65,WSW,247,4.2,-999.0,6,-99.99,,,0.00,Acu-Link.com,2013-02-18 00:34:00,
2013-02-17 17:53:00,65.3,-3.6,29.65,SW,225,0.0,-999.0,6,-99.99,,,0.00,Acu-Link.com,2013-02-18 00:53:00,
2013-02-17 18:36:00,63.7,-1.5,29.66,South,180,1.7,-999.0,7,-99.99,,,0.00,Acu-Link.com,2013-02-18 01:36:00,
2013-02-17 18:52:00,61.2,2.0,29.66,SW,225,4.7,-999.0,9,-99.99,,,0.00,Acu-Link.com,2013-02-18 01:52:00,
2013-02-17 19:13:00,61.9,2.5,29.67,SW,225,9.9,-999.0,9,-99.99,,,0.00,Acu-Link.com,2013-02-18 02:13:00,
2013-02-17 19:28:00,63.5,1.2,29.67,WSW,247,8.3,-999.0,8,-99.99,,,0.00,Acu-Link.com,2013-02-18 02:28:00,
2013-02-17 19:43:00,63.0,0.8,29.67,WSW,247,8.3,-999.0,8,-99.99,,,0.00,Acu-Link.com,2013-02-18 02:43:00,
2013-02-17 19:58:00,63.0,0.8,29.67,WSW,247,9.4,-999.0,8,-99.99,,,0.00,Acu-Link.com,2013-02-18 02:58:00,
2013-02-17 20:13:00,63.7,3.8,29.67,SW,225,8.9,-999.0,9,-99.99,,,0.00,Acu-Link.com,2013-02-18 03:13:00,
2013-02-17 20:28:00,64.4,4.4,29.68,WSW,247,14.5,-999.0,9,-99.99,,,0.00,Acu-Link.com,2013-02-18 03:28:00,
2013-02-17 20:44:00,64.8,7.0,29.68,SW,225,17.6,-999.0,10,-99.99,,,0.00,Acu-Link.com,2013-02-18 03:44:00,
2013-02-17 20:59:00,64.6,6.8,29.67,SW,225,7.8,-999.0,10,-99.99,,,0.00,Acu-Link.com,2013-02-18 03:59:00,
2013-02-17 21:14:00,64.6,6.8,29.68,WSW,247,16.1,-999.0,10,-99.99,,,0.00,Acu-Link.com,2013-02-18 04:14:00,
2013-02-17 21:29:00,64.2,6.5,29.68,WSW,247,14.5,-999.0,10,-99.99,,,0.00,Acu-Link.com,2013-02-18 04:29:00,
2013-02-17 21:44:00,63.9,6.3,29.68,SW,225,10.9,-999.0,10,-99.99,,,0.00,Acu-Link.com,2013-02-18 04:44:00,
2013-02-17 21:59:00,63.0,5.6,29.69,West,270,13.5,-999.0,10,-99.99,,,0.00,Acu-Link.com,2013-02-18 04:59:00,
2013-02-17 22:15:00,62.8,5.4,29.69,SW,225,8.3,-999.0,10,-99.99,,,0.00,Acu-Link.com,2013-02-18 05:15:00,
2013-02-17 22:30:00,62.6,5.3,29.70,West,270,9.9,-999.0,10,-99.99,,,0.00,Acu-Link.com,2013-02-18 05:30:00,
2013-02-17 22:45:00,60.6,5.8,29.70,WSW,247,7.3,-999.0,11,-99.99,,,0.00,Acu-Link.com,2013-02-18 05:45:00,
2013-02-17 23:00:00,58.6,7.9,29.71,WNW,292,4.7,-999.0,13,-99.99,,,0.00,Acu-Link.com,2013-02-18 06:00:00,
2013-02-17 23:15:00,57.7,8.9,29.71,WSW,247,7.3,-999.0,14,-99.99,,,0.00,Acu-Link.com,2013-02-18 06:15:00,
2013-02-17 23:30:00,56.8,8.1,29.72,SW,225,2.2,-999.0,14,-99.99,,,0.00,Acu-Link.com,2013-02-18 06:30:00,
2013-02-17 23:45:00,55.6,7.2,29.72,WSW,247,2.7,-999.0,14,-99.99,,,0.00,Acu-Link.com,2013-02-18 06:45:00,